createdAt,value
2018-09-26T00:01:23.906Z,1.63
2018-09-26T00:03:57.401Z,1.67
2018-09-26T00:06:27.881Z,2.07
2018-09-26T00:08:58.436Z,1.70
2018-09-26T00:11:59.730Z,2.57
2018-09-26T00:14:30.806Z,2.30
2018-09-26T00:17:01.857Z,2.23
2018-09-26T00:19:32.621Z,2.00
2018-09-26T00:22:03.369Z,2.17
2018-09-26T00:24:33.931Z,2.70
2018-09-26T00:27:04.850Z,2.90
2018-09-26T00:29:35.610Z,2.93
2018-09-26T00:32:06.220Z,2.80
2018-09-26T00:34:36.729Z,2.87
2018-09-26T00:37:28.212Z,3.57
2018-09-26T00:40:00.791Z,3.17
2018-09-26T00:42:31.312Z,2.67
2018-09-26T00:45:01.996Z,2.93
2018-09-26T00:47:32.641Z,3.23
2018-09-26T00:50:03.215Z,4.03
2018-09-26T00:52:33.830Z,2.70
2018-09-26T00:55:05.364Z,3.43
2018-09-26T00:57:35.837Z,2.53
2018-09-26T01:00:06.497Z,2.97
2018-09-26T01:02:37.555Z,3.40
2018-09-26T01:05:08.338Z,3.23
2018-09-26T01:07:39.302Z,2.53
2018-09-26T01:10:09.850Z,3.90
2018-09-26T01:12:40.479Z,2.73
2018-09-26T01:15:10.930Z,3.13
2018-09-26T01:17:41.656Z,3.07
2018-09-26T01:20:12.279Z,3.00
2018-09-26T01:22:43.159Z,4.17
2018-09-26T01:25:13.785Z,3.03
2018-09-26T01:27:44.325Z,2.93
2018-09-26T01:30:15.154Z,3.53
2018-09-26T01:32:45.634Z,3.30
2018-09-26T01:35:16.141Z,3.70
2018-09-26T01:37:46.712Z,3.20
2018-09-26T01:40:17.348Z,3.50
2018-09-26T01:42:47.918Z,3.40
2018-09-26T01:45:18.408Z,4.30
2018-09-26T01:47:49.097Z,3.03
2018-09-26T01:50:19.688Z,2.63
2018-09-26T01:52:50.226Z,3.17
2018-09-26T01:55:20.932Z,2.80
2018-09-26T01:57:51.542Z,2.83
2018-09-26T02:00:22.253Z,2.50
2018-09-26T02:02:52.965Z,3.10
2018-09-26T02:05:23.507Z,2.53
2018-09-26T02:07:53.969Z,3.00
2018-09-26T02:10:24.762Z,3.43
2018-09-26T02:12:55.252Z,2.27
2018-09-26T02:15:26.047Z,2.20
2018-09-26T02:17:56.557Z,3.03
2018-09-26T02:20:27.339Z,2.50
2018-09-26T02:22:57.850Z,3.17
2018-09-26T02:25:28.690Z,2.10
2018-09-26T02:27:59.179Z,2.63
2018-09-26T02:30:30.006Z,2.17
2018-09-26T02:33:00.488Z,1.90
2018-09-26T02:35:31.162Z,1.40
2018-09-26T02:38:01.610Z,1.77
2018-09-26T02:40:32.160Z,1.73
2018-09-26T02:43:02.797Z,1.77
2018-09-26T02:45:33.232Z,1.43
2018-09-26T02:48:05.740Z,2.03
2018-09-26T02:50:36.530Z,1.90
2018-09-26T02:53:07.168Z,1.80
2018-09-26T02:55:37.708Z,1.47
2018-09-26T02:58:08.389Z,2.03
2018-09-26T03:00:39.033Z,1.60
2018-09-26T03:03:09.636Z,1.57
2018-09-26T03:05:40.114Z,1.70
2018-09-26T03:08:11.208Z,1.33
2018-09-26T03:10:42.051Z,1.50
2018-09-26T03:13:12.545Z,1.80
2018-09-26T03:15:43.449Z,2.43
2018-09-26T03:18:13.974Z,3.07
2018-09-26T03:20:44.441Z,1.47
2018-09-26T03:23:14.961Z,1.93
2018-09-26T03:25:45.976Z,2.07
2018-09-26T03:28:16.536Z,1.90
2018-09-26T03:30:47.039Z,2.30
2018-09-26T03:33:17.944Z,2.43
2018-09-26T03:35:48.602Z,2.37
2018-09-26T03:38:19.313Z,2.10
2018-09-26T03:40:49.877Z,4.27
2018-09-26T03:43:20.554Z,2.20
2018-09-26T03:45:51.222Z,3.13
2018-09-26T03:48:22.081Z,3.10
2018-09-26T03:50:52.657Z,3.10
2018-09-26T03:53:23.392Z,3.00
2018-09-26T03:55:54.051Z,2.93
2018-09-26T03:58:24.744Z,3.60
2018-09-26T04:00:55.519Z,3.47
2018-09-26T04:03:26.268Z,4.20
2018-09-26T04:05:56.824Z,5.00
2018-09-26T04:08:27.433Z,3.47
2018-09-26T04:10:58.165Z,11.70
2018-09-26T04:13:33.635Z,10.90
2018-09-26T04:16:09.995Z,8.17
2018-09-26T04:18:40.851Z,6.50
2018-09-26T04:21:11.411Z,6.67
2018-09-26T04:23:41.921Z,7.57
2018-09-26T04:26:12.671Z,6.10
2018-09-26T04:28:43.322Z,6.07
2018-09-26T04:31:13.998Z,5.83
2018-09-26T04:33:44.676Z,5.60
2018-09-26T04:36:15.103Z,4.60
2018-09-26T04:38:45.623Z,4.30
2018-09-26T04:41:15.993Z,4.63
2018-09-26T04:43:46.686Z,5.50
2018-09-26T04:46:17.610Z,4.20
2018-09-26T04:48:48.076Z,5.57
2018-09-26T04:51:18.677Z,4.00
2018-09-26T04:53:49.174Z,4.87
2018-09-26T04:56:19.802Z,4.63
2018-09-26T04:58:50.266Z,5.20
2018-09-26T05:01:20.785Z,4.73
2018-09-26T05:03:51.472Z,4.77
2018-09-26T05:06:21.918Z,5.40
2018-09-26T05:08:52.804Z,5.30
2018-09-26T05:11:23.453Z,4.73
2018-09-26T05:13:54.061Z,5.50
2018-09-26T05:16:24.549Z,6.07
2018-09-26T05:18:55.408Z,5.17
2018-09-26T05:21:26.070Z,5.10
2018-09-26T05:23:56.801Z,5.00
2018-09-26T05:26:27.310Z,6.80
2018-09-26T05:28:59.298Z,6.53
2018-09-26T05:31:31.634Z,5.30
2018-09-26T05:34:06.326Z,4.27
2018-09-26T05:36:38.530Z,5.57
2018-09-26T05:39:13.625Z,5.93
2018-09-26T05:41:46.883Z,4.97
2018-09-26T05:44:18.494Z,5.27
2018-09-26T05:46:51.100Z,4.97
2018-09-26T05:49:24.158Z,5.43
2018-09-26T05:51:58.838Z,4.60
2018-09-26T05:54:33.776Z,5.13
2018-09-26T05:57:06.062Z,5.00
2018-09-26T05:59:37.365Z,5.50
2018-09-26T06:02:10.790Z,8.20
2018-09-26T06:04:49.793Z,6.67
2018-09-26T06:07:23.753Z,5.70
2018-09-26T06:09:57.038Z,7.00
2018-09-26T06:12:30.591Z,5.80
2018-09-26T06:15:02.780Z,5.97
2018-09-26T06:17:35.775Z,5.87
2018-09-26T06:20:06.472Z,6.20
2018-09-26T06:22:37.412Z,6.10
2018-09-26T06:25:08.337Z,5.90
2018-09-26T06:27:39.425Z,6.00
2018-09-26T06:30:10.746Z,6.00
2018-09-26T06:32:41.893Z,6.53
2018-09-26T06:35:13.308Z,5.73
2018-09-26T06:37:43.851Z,6.20
2018-09-26T06:40:14.820Z,6.67
2018-09-26T06:42:45.339Z,6.50
2018-09-26T06:45:16.054Z,4.87
2018-09-26T06:47:46.658Z,6.23
2018-09-26T06:50:17.341Z,5.93
2018-09-26T06:52:48.044Z,5.80
2018-09-26T06:55:18.929Z,6.03
2018-09-26T06:57:49.830Z,5.07
2018-09-26T07:00:20.824Z,5.13
2018-09-26T07:02:51.536Z,5.80
2018-09-26T07:05:22.347Z,5.90
2018-09-26T07:07:52.938Z,6.53
2018-09-26T07:10:23.667Z,5.60
2018-09-26T07:12:54.353Z,5.87
2018-09-26T07:15:25.265Z,5.87
2018-09-26T07:17:56.587Z,5.67
2018-09-26T07:20:27.309Z,5.87
2018-09-26T07:22:57.967Z,7.53
2018-09-26T07:25:28.860Z,6.27
2018-09-26T07:28:00.049Z,6.27
2018-09-26T07:30:30.897Z,6.23
2018-09-26T07:33:01.670Z,6.67
2018-09-26T07:35:32.440Z,6.70
2018-09-26T07:38:03.426Z,6.37
2018-09-26T07:40:34.075Z,7.07
2018-09-26T07:43:04.800Z,6.70
2018-09-26T07:45:35.653Z,6.83
2018-09-26T07:48:06.365Z,7.20
2018-09-26T07:50:36.966Z,7.43
2018-09-26T07:53:07.818Z,9.70
2018-09-26T07:55:38.677Z,8.47
2018-09-26T07:58:09.384Z,9.53
2018-09-26T08:00:40.083Z,7.53
2018-09-26T08:03:10.954Z,9.17
2018-09-26T08:05:41.587Z,10.10
2018-09-26T08:08:12.412Z,10.73
2018-09-26T08:10:43.095Z,10.03
2018-09-26T08:13:13.793Z,9.13
2018-09-26T08:15:44.584Z,9.53
2018-09-26T08:18:15.047Z,10.73
2018-09-26T08:20:45.858Z,8.20
2018-09-26T08:23:16.908Z,9.37
2018-09-26T08:25:47.642Z,10.20
2018-09-26T08:28:18.294Z,9.90
2018-09-26T08:30:48.974Z,10.10
2018-09-26T08:33:19.430Z,9.53
2018-09-26T08:35:50.245Z,9.10
2018-09-26T08:38:21.147Z,10.43
2018-09-26T08:40:51.704Z,10.30
2018-09-26T08:43:23.948Z,10.20
2018-09-26T08:45:54.699Z,10.27
2018-09-26T08:48:26.589Z,10.00
2018-09-26T08:50:58.327Z,9.80
2018-09-26T08:53:29.843Z,10.40
2018-09-26T08:56:01.189Z,11.20
2018-09-26T08:58:31.913Z,11.57
2018-09-26T09:01:02.544Z,11.07
2018-09-26T09:03:33.484Z,10.70
2018-09-26T09:06:04.359Z,10.50
2018-09-26T09:08:35.260Z,10.57
2018-09-26T09:11:06.388Z,11.50
2018-09-26T09:13:37.289Z,11.17
2018-09-26T09:17:11.009Z,10.23
2018-09-26T09:19:41.596Z,12.50
2018-09-26T09:22:12.042Z,9.30
2018-09-26T09:24:42.582Z,9.87
2018-09-26T09:27:13.327Z,9.33
2018-09-26T09:29:44.462Z,9.67
2018-09-26T09:32:15.202Z,10.30
2018-09-26T09:34:46.279Z,11.00
2018-09-26T09:37:17.820Z,10.23
2018-09-26T09:39:48.595Z,9.00
2018-09-26T09:42:19.694Z,9.70
2018-09-26T09:44:50.659Z,8.67
2018-09-26T09:47:21.592Z,8.90
2018-09-26T09:49:52.608Z,8.73
2018-09-26T09:52:23.694Z,10.20
2018-09-26T09:54:54.621Z,8.93
2018-09-26T09:57:25.563Z,9.93
2018-09-26T09:59:56.529Z,10.27
2018-09-26T10:02:27.728Z,9.03
2018-09-26T10:04:58.652Z,9.97
2018-09-26T10:07:29.369Z,8.80
2018-09-26T10:10:00.537Z,10.67
2018-09-26T10:12:31.783Z,9.40
2018-09-26T10:15:04.327Z,10.03
2018-09-26T10:17:35.338Z,8.80
2018-09-26T10:20:06.446Z,10.33
2018-09-26T10:22:37.788Z,10.87
2018-09-26T10:25:08.621Z,8.50
2018-09-26T10:27:39.849Z,10.63
2018-09-26T10:30:10.839Z,10.33
2018-09-26T10:32:49.261Z,9.40
2018-09-26T10:35:25.636Z,9.33
2018-09-26T10:37:56.947Z,9.90
2018-09-26T10:40:27.917Z,10.33
2018-09-26T10:42:58.826Z,9.90
2018-09-26T10:45:29.782Z,11.50
2018-09-26T10:48:00.939Z,10.37
2018-09-26T10:50:32.066Z,12.50
2018-09-26T10:53:03.002Z,12.10
2018-09-26T10:55:33.904Z,11.33
2018-09-26T10:58:05.117Z,11.30
2018-09-26T11:00:35.937Z,11.33
2018-09-26T11:03:07.182Z,11.10
2018-09-26T11:05:38.283Z,11.50
2018-09-26T11:08:09.111Z,11.23
2018-09-26T11:10:40.149Z,12.37
2018-09-26T11:13:11.184Z,11.40
2018-09-26T11:15:42.309Z,13.97
2018-09-26T11:18:13.280Z,15.10
2018-09-26T11:20:44.022Z,13.73
2018-09-26T11:23:14.971Z,14.87
2018-09-26T11:25:46.226Z,14.23
2018-09-26T11:28:17.258Z,15.73
2018-09-26T11:30:48.283Z,14.27
2018-09-26T11:33:19.529Z,15.57
2018-09-26T11:35:50.596Z,13.30
2018-09-26T11:38:21.570Z,13.43
2018-09-26T11:40:52.667Z,14.93
2018-09-26T11:43:23.604Z,15.33
2018-09-26T11:45:55.408Z,15.13
2018-09-26T11:48:26.519Z,13.17
2018-09-26T11:50:57.436Z,14.40
2018-09-26T11:53:29.274Z,13.67
2018-09-26T11:55:59.977Z,15.80
2018-09-26T11:58:30.812Z,13.30
2018-09-26T12:01:02.163Z,15.03
2018-09-26T12:03:33.122Z,14.50
2018-09-26T12:06:04.116Z,13.70
2018-09-26T12:08:34.978Z,12.77
2018-09-26T12:11:06.024Z,14.33
2018-09-26T12:13:36.955Z,12.83
2018-09-26T12:16:08.313Z,12.13
2018-09-26T12:18:39.439Z,12.10
2018-09-26T12:21:10.582Z,13.63
2018-09-26T12:23:41.729Z,13.40
2018-09-26T12:26:12.629Z,11.00
2018-09-26T12:28:43.530Z,14.93
2018-09-26T12:31:14.520Z,9.60
2018-09-26T12:33:45.867Z,10.00
2018-09-26T12:36:16.867Z,10.43
2018-09-26T12:38:47.759Z,10.13
2018-09-26T12:41:19.327Z,10.40
2018-09-26T12:43:50.258Z,11.07
2018-09-26T12:46:21.254Z,10.43
2018-09-26T12:48:51.920Z,9.80
2018-09-26T12:51:23.199Z,8.63
2018-09-26T12:53:54.381Z,8.83
2018-09-26T12:56:25.556Z,9.10
2018-09-26T12:58:56.687Z,9.40
2018-09-26T13:01:38.172Z,9.73
2018-09-26T13:04:18.968Z,7.90
2018-09-26T13:06:51.044Z,7.30
2018-09-26T13:09:22.058Z,6.70
2018-09-26T13:11:53.123Z,7.50
2018-09-26T13:14:23.915Z,9.20
2018-09-26T13:16:55.011Z,9.70
2018-09-26T13:19:25.934Z,8.90
2018-09-26T13:21:57.255Z,11.37
2018-09-26T13:24:28.330Z,11.33
2018-09-26T13:26:59.791Z,10.23
2018-09-26T13:29:31.472Z,9.33
2018-09-26T13:32:03.577Z,8.50
2018-09-26T13:34:36.320Z,7.30
2018-09-26T13:37:09.535Z,8.50
2018-09-26T13:39:41.061Z,6.60
2018-09-26T13:42:12.156Z,9.27
2018-09-26T13:44:43.306Z,6.83
2018-09-26T13:47:14.365Z,8.80
2018-09-26T13:49:45.339Z,8.00
2018-09-26T13:52:16.311Z,7.43
2018-09-26T13:54:47.167Z,6.93
2018-09-26T13:57:18.310Z,8.03
2018-09-26T13:59:49.508Z,7.53
2018-09-26T14:02:21.160Z,7.20
2018-09-26T14:04:52.272Z,6.27
2018-09-26T14:07:23.141Z,6.87
2018-09-26T14:09:54.342Z,7.00
2018-09-26T14:12:25.331Z,6.10
2018-09-26T14:14:56.270Z,6.43
2018-09-26T14:17:27.556Z,9.20
2018-09-26T14:19:58.682Z,8.83
2018-09-26T14:22:30.341Z,8.30
2018-09-26T14:25:01.499Z,7.83
2018-09-26T14:27:32.459Z,7.40
2018-09-26T14:30:03.733Z,9.07
2018-09-26T14:32:34.692Z,7.70
2018-09-26T14:35:06.048Z,7.00
2018-09-26T14:37:37.300Z,7.00
2018-09-26T14:40:08.981Z,6.97
2018-09-26T14:42:39.873Z,7.67
2018-09-26T14:45:10.882Z,8.47
2018-09-26T14:47:41.832Z,5.73
2018-09-26T14:50:13.074Z,7.70
2018-09-26T14:52:44.317Z,6.00
2018-09-26T14:55:15.505Z,6.70
2018-09-26T14:57:46.584Z,5.53
2018-09-26T15:00:17.841Z,6.37
2018-09-26T15:02:48.958Z,6.60
2018-09-26T15:05:20.268Z,7.13
2018-09-26T15:07:52.097Z,7.10
2018-09-26T15:10:23.777Z,5.77
2018-09-26T15:12:54.928Z,6.00
2018-09-26T15:15:26.154Z,8.83
2018-09-26T15:17:57.487Z,5.57
2018-09-26T15:20:28.718Z,7.57
2018-09-26T15:22:59.688Z,7.10
2018-09-26T15:25:30.578Z,8.00
2018-09-26T15:28:01.788Z,5.57
2018-09-26T15:30:33.400Z,7.30
2018-09-26T15:33:04.478Z,7.53
2018-09-26T15:35:35.604Z,7.37
2018-09-26T15:38:06.697Z,6.00
2018-09-26T15:40:37.568Z,5.63
2018-09-26T15:43:08.879Z,7.00
2018-09-26T15:45:40.020Z,6.70
2018-09-26T15:48:11.157Z,7.00
2018-09-26T15:50:43.230Z,6.37
2018-09-26T15:53:14.213Z,7.63
2018-09-26T15:55:45.500Z,6.87
2018-09-26T15:58:16.394Z,5.57
2018-09-26T16:00:47.511Z,8.67
2018-09-26T16:03:19.232Z,8.77
2018-09-26T16:05:50.547Z,6.83
2018-09-26T16:08:21.996Z,7.73
2018-09-26T16:10:52.878Z,7.47
2018-09-26T16:13:23.556Z,8.00
2018-09-26T16:15:54.892Z,9.40
2018-09-26T16:18:25.979Z,8.37
2018-09-26T16:20:57.080Z,8.40
2018-09-26T16:23:28.844Z,9.00
2018-09-26T16:25:59.942Z,7.20
2018-09-26T16:28:31.326Z,7.50
2018-09-26T16:31:02.561Z,7.10
2018-09-26T16:33:33.724Z,7.20
2018-09-26T16:36:04.699Z,6.73
2018-09-26T16:38:35.654Z,6.30
2018-09-26T16:41:06.829Z,6.70
2018-09-26T16:43:37.712Z,6.27
2018-09-26T16:46:08.777Z,6.60
2018-09-26T16:48:40.014Z,6.70
2018-09-26T16:51:11.362Z,7.90
2018-09-26T16:53:42.402Z,6.87
2018-09-26T16:56:13.589Z,6.87
2018-09-26T16:58:44.776Z,7.40
2018-09-26T17:01:15.691Z,6.50
2018-09-26T17:03:47.103Z,6.70
2018-09-26T17:06:18.266Z,7.63
2018-09-26T17:08:49.418Z,7.50
2018-09-26T17:11:20.844Z,7.57
2018-09-26T17:13:52.509Z,7.13
2018-09-26T17:16:23.634Z,7.47
2018-09-26T17:18:54.606Z,7.97
2018-09-26T17:21:25.707Z,8.23
2018-09-26T17:23:56.861Z,7.77
2018-09-26T17:26:27.823Z,7.97
2018-09-26T17:28:58.951Z,8.80
2018-09-26T17:31:30.113Z,7.30
2018-09-26T17:34:01.569Z,7.17
2018-09-26T17:36:32.770Z,7.10
2018-09-26T17:39:04.504Z,6.67
2018-09-26T17:41:35.492Z,8.87
2018-09-26T17:44:06.986Z,7.63
2018-09-26T17:46:38.285Z,6.20
2018-09-26T17:49:09.532Z,7.80
2018-09-26T17:51:40.659Z,6.50
2018-09-26T17:54:11.652Z,8.07
2018-09-26T17:56:42.979Z,7.20
2018-09-26T17:59:13.911Z,7.43
2018-09-26T18:01:45.250Z,8.13
2018-09-26T18:04:16.399Z,6.97
2018-09-26T18:06:47.696Z,6.67
2018-09-26T18:09:18.695Z,5.50
2018-09-26T18:11:49.950Z,6.77
2018-09-26T18:14:21.156Z,5.80
2018-09-26T18:16:52.225Z,6.07
2018-09-26T18:19:23.205Z,8.03
2018-09-26T18:21:54.202Z,7.20
2018-09-26T18:24:25.837Z,6.00
2018-09-26T18:26:56.680Z,7.80
2018-09-26T18:29:28.081Z,5.87
2018-09-26T18:31:59.347Z,7.33
2018-09-26T18:34:30.139Z,6.87
2018-09-26T18:37:01.532Z,48.70
2018-09-26T18:39:33.029Z,27.17
2018-09-26T18:42:04.380Z,22.17
2018-09-26T18:44:35.723Z,22.03
2018-09-26T18:47:08.441Z,46.77
2018-09-26T18:49:46.724Z,25.23
2018-09-26T18:52:24.424Z,18.77
2018-09-26T18:54:58.721Z,15.37
2018-09-26T18:57:29.774Z,14.30
2018-09-26T19:00:00.780Z,13.40
2018-09-26T19:02:32.103Z,13.00
2018-09-26T19:05:03.218Z,11.60
2018-09-26T19:07:34.219Z,9.93
2018-09-26T19:10:05.638Z,12.37
2018-09-26T19:12:37.202Z,8.33
2018-09-26T19:15:08.681Z,9.17
2018-09-26T19:17:41.442Z,9.60
2018-09-26T19:20:13.156Z,10.07
2018-09-26T19:22:45.944Z,9.93
2018-09-26T19:25:17.357Z,8.50
2018-09-26T19:27:48.300Z,8.27
2018-09-26T19:30:20.650Z,7.53
2018-09-26T19:32:51.823Z,9.23
2018-09-26T19:35:23.326Z,8.10
2018-09-26T19:37:54.451Z,8.93
2018-09-26T19:40:25.491Z,9.30
2018-09-26T19:42:56.677Z,7.63
2018-09-26T19:45:28.165Z,8.73
2018-09-26T19:47:59.597Z,8.27
2018-09-26T19:50:30.819Z,9.37
2018-09-26T19:53:02.716Z,8.67
2018-09-26T19:55:33.962Z,8.30
2018-09-26T19:58:05.210Z,8.43
2018-09-26T20:00:36.275Z,7.50
2018-09-26T20:03:07.434Z,8.47
2018-09-26T20:05:38.811Z,8.17
2018-09-26T20:08:09.897Z,7.80
2018-09-26T20:10:40.924Z,9.70
2018-09-26T20:13:11.795Z,8.70
2018-09-26T20:15:44.714Z,9.73
2018-09-26T20:18:15.638Z,9.97
2018-09-26T20:20:46.666Z,7.40
2018-09-26T20:23:17.795Z,8.27
2018-09-26T20:25:49.073Z,7.03
2018-09-26T20:28:19.979Z,7.00
2018-09-26T20:30:51.602Z,6.73
2018-09-26T20:33:22.841Z,7.23
2018-09-26T20:35:53.924Z,8.10
2018-09-26T20:38:24.961Z,7.00
2018-09-26T20:40:55.891Z,5.93
2018-09-26T20:43:27.872Z,6.47
2018-09-26T20:45:58.854Z,6.53
2018-09-26T20:48:29.907Z,6.27
2018-09-26T20:51:00.662Z,5.90
2018-09-26T20:53:31.663Z,7.10
2018-09-26T20:56:02.744Z,5.90
2018-09-26T20:58:33.651Z,6.27
2018-09-26T21:01:04.624Z,4.90
2018-09-26T21:03:35.655Z,6.10
2018-09-26T21:06:07.097Z,5.00
2018-09-26T21:08:38.282Z,5.77
2018-09-26T21:11:09.378Z,5.50
2018-09-26T21:13:40.322Z,4.63
2018-09-26T21:16:11.304Z,6.50
2018-09-26T21:18:42.221Z,4.70
2018-09-26T21:21:13.191Z,6.40
2018-09-26T21:23:44.269Z,5.23
2018-09-26T21:26:15.219Z,5.73
2018-09-26T21:28:45.969Z,6.93
2018-09-26T21:31:17.184Z,5.10
2018-09-26T21:33:48.284Z,6.63
2018-09-26T21:36:19.607Z,6.17
2018-09-26T21:38:50.588Z,5.93
2018-09-26T21:41:21.637Z,5.80
2018-09-26T21:43:52.806Z,7.53
2018-09-26T21:46:23.980Z,7.47
2018-09-26T21:48:55.805Z,6.40
2018-09-26T21:51:27.051Z,6.83
2018-09-26T21:53:58.010Z,6.77
2018-09-26T21:56:28.862Z,7.40
2018-09-26T21:58:59.701Z,5.43
2018-09-26T22:01:31.931Z,9.03
2018-09-26T22:04:03.006Z,7.37
2018-09-26T22:06:34.035Z,6.53
2018-09-26T22:09:06.736Z,7.73
2018-09-26T22:11:37.686Z,8.03
2018-09-26T22:14:08.651Z,6.23
2018-09-26T22:16:39.742Z,6.10
2018-09-26T22:19:10.667Z,7.00
2018-09-26T22:21:41.612Z,5.90
2018-09-26T22:24:12.537Z,8.00
2018-09-26T22:26:43.837Z,6.23
2018-09-26T22:29:15.121Z,5.60
2018-09-26T22:31:46.020Z,6.27
2018-09-26T22:34:17.007Z,6.07
2018-09-26T22:36:48.061Z,5.57
2018-09-26T22:39:19.256Z,5.90
2018-09-26T22:41:50.179Z,5.83
2018-09-26T22:44:21.063Z,7.83
2018-09-26T22:46:52.124Z,5.73
2018-09-26T22:49:23.382Z,4.73
2018-09-26T22:51:54.347Z,5.87
2018-09-26T22:54:25.071Z,5.13
2018-09-26T22:56:55.930Z,5.67
2018-09-26T22:59:26.945Z,5.30
2018-09-26T23:01:57.849Z,5.80
2018-09-26T23:04:28.827Z,4.90
2018-09-26T23:06:59.896Z,6.43
2018-09-26T23:09:30.859Z,5.30
2018-09-26T23:12:02.164Z,5.07
2018-09-26T23:14:33.171Z,5.93
2018-09-26T23:17:04.165Z,4.47
2018-09-26T23:19:34.955Z,4.40
2018-09-26T23:22:05.831Z,4.60
2018-09-26T23:24:36.836Z,6.03
2018-09-26T23:27:07.667Z,5.23
2018-09-26T23:29:38.382Z,6.77
2018-09-26T23:32:09.295Z,4.70
2018-09-26T23:34:41.027Z,5.50
2018-09-26T23:37:12.033Z,3.90
2018-09-26T23:39:42.928Z,5.80
2018-09-26T23:42:13.948Z,4.37
2018-09-26T23:44:44.767Z,5.10
2018-09-26T23:47:15.753Z,4.40
2018-09-26T23:49:46.890Z,4.97
2018-09-26T23:52:17.851Z,4.57
2018-09-26T23:54:48.838Z,5.40
2018-09-26T23:57:19.931Z,4.63
2018-09-26T23:59:50.911Z,4.77
